sensor_id;sensor_type;location;lat;lon;timestamp;pressure;altitude;pressure_sealevel;temperature;humidity
42621;BME280;28252;53.336;-6.298;2022-08-19T00:00:15;100543.84;;;23.83;64.04
42621;BME280;28252;53.336;-6.298;2022-08-19T00:00:46;100545.72;;;23.83;63.97
42621;BME280;28252;53.336;-6.298;2022-08-19T00:01:18;100541.09;;;23.83;64.03
42621;BME280;28252;53.336;-6.298;2022-08-19T00:01:50;100545.72;;;23.83;64.15
42621;BME280;28252;53.336;-6.298;2022-08-19T00:02:21;100535.88;;;23.82;64.07
42621;BME280;28252;53.336;-6.298;2022-08-19T00:02:53;100545.72;;;23.83;63.85
42621;BME280;28252;53.336;-6.298;2022-08-19T00:03:24;100541.09;;;23.83;63.79
42621;BME280;28252;53.336;-6.298;2022-08-19T00:03:55;100536.72;;;23.82;63.88
42621;BME280;28252;53.336;-6.298;2022-08-19T00:04:31;100536.88;;;23.81;64.03
42621;BME280;28252;53.336;-6.298;2022-08-19T00:05:03;100543.19;;;23.81;64.05
42621;BME280;28252;53.336;-6.298;2022-08-19T00:05:34;100539.44;;;23.82;64.06
42621;BME280;28252;53.336;-6.298;2022-08-19T00:06:05;100537.91;;;23.80;63.83
42621;BME280;28252;53.336;-6.298;2022-08-19T00:06:36;100538.59;;;23.82;64.03
42621;BME280;28252;53.336;-6.298;2022-08-19T00:07:07;100534.00;;;23.82;63.79
42621;BME280;28252;53.336;-6.298;2022-08-19T00:07:39;100537.75;;;23.81;64.03
42621;BME280;28252;53.336;-6.298;2022-08-19T00:08:10;100536.72;;;23.82;63.95
42621;BME280;28252;53.336;-6.298;2022-08-19T00:08:41;100538.59;;;23.82;63.91
42621;BME280;28252;53.336;-6.298;2022-08-19T00:09:13;100540.47;;;23.81;63.97
42621;BME280;28252;53.336;-6.298;2022-08-19T00:09:45;100541.09;;;23.83;63.71
42621;BME280;28252;53.336;-6.298;2022-08-19T00:10:16;100537.56;;;23.83;63.97
42621;BME280;28252;53.336;-6.298;2022-08-19T00:10:47;100543.00;;;23.83;63.82
42621;BME280;28252;53.336;-6.298;2022-08-19T00:11:19;100541.31;;;23.82;63.67
42621;BME280;28252;53.336;-6.298;2022-08-19T00:11:51;100538.59;;;23.82;63.78
42621;BME280;28252;53.336;-6.298;2022-08-19T00:12:22;100541.31;;;23.82;63.94
42621;BME280;28252;53.336;-6.298;2022-08-19T00:12:53;100543.00;;;23.83;63.95
42621;BME280;28252;53.336;-6.298;2022-08-19T00:13:24;100543.19;;;23.81;63.77
42621;BME280;28252;53.336;-6.298;2022-08-19T00:13:55;100546.75;;;23.82;63.94
42621;BME280;28252;53.336;-6.298;2022-08-19T00:14:27;100544.03;;;23.82;63.91
42621;BME280;28252;53.336;-6.298;2022-08-19T00:15:00;100549.47;;;23.82;63.80
42621;BME280;28252;53.336;-6.298;2022-08-19T00:15:31;100544.03;;;23.82;63.78
42621;BME280;28252;53.336;-6.298;2022-08-19T00:16:02;100547.78;;;23.81;63.74
42621;BME280;28252;53.336;-6.298;2022-08-19T00:16:33;100544.03;;;23.82;63.89
42621;BME280;28252;53.336;-6.298;2022-08-19T00:17:05;100545.91;;;23.81;63.91
42621;BME280;28252;53.336;-6.298;2022-08-19T00:17:37;100544.03;;;23.82;63.78
42621;BME280;28252;53.336;-6.298;2022-08-19T00:18:08;100552.19;;;23.82;63.68
42621;BME280;28252;53.336;-6.298;2022-08-19T00:18:39;100549.47;;;23.82;63.64
42621;BME280;28252;53.336;-6.298;2022-08-19T00:19:10;100549.47;;;23.82;63.67
42621;BME280;28252;53.336;-6.298;2022-08-19T00:19:41;100548.63;;;23.81;64.07
42621;BME280;28252;53.336;-6.298;2022-08-19T00:20:14;100544.03;;;23.82;63.75
42621;BME280;28252;53.336;-6.298;2022-08-19T00:20:47;100545.72;;;23.83;63.65
42621;BME280;28252;53.336;-6.298;2022-08-19T00:21:19;100549.47;;;23.82;63.87
42621;BME280;28252;53.336;-6.298;2022-08-19T00:21:50;100550.31;;;23.82;63.98
42621;BME280;28252;53.336;-6.298;2022-08-19T00:22:21;100543.19;;;23.81;63.66
42621;BME280;28252;53.336;-6.298;2022-08-19T00:22:52;100544.03;;;23.82;63.66
42621;BME280;28252;53.336;-6.298;2022-08-19T00:23:25;100547.78;;;23.81;63.64
42621;BME280;28252;53.336;-6.298;2022-08-19T00:23:57;100544.03;;;23.82;63.88
42621;BME280;28252;53.336;-6.298;2022-08-19T00:24:31;100546.75;;;23.82;63.66
42621;BME280;28252;53.336;-6.298;2022-08-19T00:25:03;100547.78;;;23.81;63.79
42621;BME280;28252;53.336;-6.298;2022-08-19T00:25:34;100549.47;;;23.82;63.87
42621;BME280;28252;53.336;-6.298;2022-08-19T00:26:06;100542.34;;;23.81;63.84
42621;BME280;28252;53.336;-6.298;2022-08-19T00:26:37;100540.28;;;23.83;63.64
42621;BME280;28252;53.336;-6.298;2022-08-19T00:27:09;100546.75;;;23.82;63.59
42621;BME280;28252;53.336;-6.298;2022-08-19T00:27:40;100546.75;;;23.82;63.82
42621;BME280;28252;53.336;-6.298;2022-08-19T00:28:11;100545.91;;;23.81;63.80
42621;BME280;28252;53.336;-6.298;2022-08-19T00:28:42;100546.75;;;23.82;63.89
42621;BME280;28252;53.336;-6.298;2022-08-19T00:29:14;100551.34;;;23.81;63.80
42621;BME280;28252;53.336;-6.298;2022-08-19T00:29:45;100548.63;;;23.81;63.75
42621;BME280;28252;53.336;-6.298;2022-08-19T00:30:16;100545.91;;;23.81;63.84
42621;BME280;28252;53.336;-6.298;2022-08-19T00:30:46;100551.16;;;23.83;63.88
42621;BME280;28252;53.336;-6.298;2022-08-19T00:31:17;100549.47;;;23.82;63.76
42621;BME280;28252;53.336;-6.298;2022-08-19T00:31:49;100554.06;;;23.81;63.85
42621;BME280;28252;53.336;-6.298;2022-08-19T00:32:23;100548.63;;;23.81;63.76
42621;BME280;28252;53.336;-6.298;2022-08-19T00:32:56;100549.47;;;23.82;63.80
42621;BME280;28252;53.336;-6.298;2022-08-19T00:33:27;100551.34;;;23.81;63.67
42621;BME280;28252;53.336;-6.298;2022-08-19T00:33:58;100547.78;;;23.81;63.89
42621;BME280;28252;53.336;-6.298;2022-08-19T00:34:29;100559.50;;;23.81;63.80
42621;BME280;28252;53.336;-6.298;2022-08-19T00:35:00;100553.22;;;23.81;63.63
42621;BME280;28252;53.336;-6.298;2022-08-19T00:35:32;100555.94;;;23.81;63.91
42621;BME280;28252;53.336;-6.298;2022-08-19T00:36:05;100549.47;;;23.82;63.91
42621;BME280;28252;53.336;-6.298;2022-08-19T00:36:36;100557.63;;;23.82;63.87
42621;BME280;28252;53.336;-6.298;2022-08-19T00:37:08;100554.06;;;23.81;63.81
42621;BME280;28252;53.336;-6.298;2022-08-19T00:37:39;100554.91;;;23.82;63.64
42621;BME280;28252;53.336;-6.298;2022-08-19T00:38:13;100561.38;;;23.81;63.69
42621;BME280;28252;53.336;-6.298;2022-08-19T00:38:44;100558.66;;;23.81;63.81
42621;BME280;28252;53.336;-6.298;2022-08-19T00:39:15;100555.94;;;23.81;63.82
42621;BME280;28252;53.336;-6.298;2022-08-19T00:39:47;100549.47;;;23.82;63.58
42621;BME280;28252;53.336;-6.298;2022-08-19T00:40:18;100557.63;;;23.82;63.62
42621;BME280;28252;53.336;-6.298;2022-08-19T00:40:49;100558.47;;;23.82;63.83
42621;BME280;28252;53.336;-6.298;2022-08-19T00:41:21;100561.38;;;23.81;63.77
42621;BME280;28252;53.336;-6.298;2022-08-19T00:41:53;100557.81;;;23.80;63.39
42621;BME280;28252;53.336;-6.298;2022-08-19T00:42:24;100555.94;;;23.81;63.55
42621;BME280;28252;53.336;-6.298;2022-08-19T00:42:58;100558.66;;;23.81;63.76
42621;BME280;28252;53.336;-6.298;2022-08-19T00:43:30;100559.50;;;23.81;63.57
42621;BME280;28252;53.336;-6.298;2022-08-19T00:44:02;100565.78;;;23.82;63.79
42621;BME280;28252;53.336;-6.298;2022-08-19T00:44:34;100566.81;;;23.81;63.73
42621;BME280;28252;53.336;-6.298;2022-08-19T00:45:10;100558.66;;;23.81;63.81
42621;BME280;28252;53.336;-6.298;2022-08-19T00:45:41;100563.25;;;23.80;63.96
42621;BME280;28252;53.336;-6.298;2022-08-19T00:46:14;100554.22;;;23.80;63.71
42621;BME280;28252;53.336;-6.298;2022-08-19T00:46:45;100563.25;;;23.80;63.76
42621;BME280;28252;53.336;-6.298;2022-08-19T00:47:17;100559.50;;;23.81;63.43
42621;BME280;28252;53.336;-6.298;2022-08-19T00:47:48;100560.34;;;23.82;63.67
42621;BME280;28252;53.336;-6.298;2022-08-19T00:48:20;100559.69;;;23.80;63.58
42621;BME280;28252;53.336;-6.298;2022-08-19T00:48:51;100563.25;;;23.80;63.47
42621;BME280;28252;53.336;-6.298;2022-08-19T00:49:56;100561.56;;;23.79;63.74
42621;BME280;28252;53.336;-6.298;2022-08-19T00:50:28;100564.28;;;23.79;63.58
42621;BME280;28252;53.336;-6.298;2022-08-19T00:51:00;100563.44;;;23.79;63.49
42621;BME280;28252;53.336;-6.298;2022-08-19T00:51:31;100572.44;;;23.79;63.85
42621;BME280;28252;53.336;-6.298;2022-08-19T00:52:04;100574.31;;;23.79;63.45
42621;BME280;28252;53.336;-6.298;2022-08-19T00:52:38;100560.53;;;23.80;63.69
42621;BME280;28252;53.336;-6.298;2022-08-19T00:53:12;100570.56;;;23.80;63.57
42621;BME280;28252;53.336;-6.298;2022-08-19T00:53:45;100567.84;;;23.80;63.50
42621;BME280;28252;53.336;-6.298;2022-08-19T00:54:16;100574.31;;;23.79;63.44
42621;BME280;28252;53.336;-6.298;2022-08-19T00:54:47;100572.44;;;23.79;63.40
42621;BME280;28252;53.336;-6.298;2022-08-19T00:55:20;100569.72;;;23.79;63.51
42621;BME280;28252;53.336;-6.298;2022-08-19T00:55:52;100568.88;;;23.79;63.41
42621;BME280;28252;53.336;-6.298;2022-08-19T00:56:24;100574.31;;;23.79;63.50
42621;BME280;28252;53.336;-6.298;2022-08-19T00:56:57;100576.00;;;23.80;63.53
42621;BME280;28252;53.336;-6.298;2022-08-19T00:57:31;100576.00;;;23.80;63.19
42621;BME280;28252;53.336;-6.298;2022-08-19T00:58:06;100571.63;;;23.79;63.51
42621;BME280;28252;53.336;-6.298;2022-08-19T00:58:38;100572.44;;;23.79;63.49
42621;BME280;28252;53.336;-6.298;2022-08-19T00:59:10;100571.63;;;23.79;63.44
42621;BME280;28252;53.336;-6.298;2022-08-19T00:59:42;100567.19;;;23.78;63.14
42621;BME280;28252;53.336;-6.298;2022-08-19T01:00:15;100570.75;;;23.78;63.39
42621;BME280;28252;53.336;-6.298;2022-08-19T01:00:47;100569.72;;;23.79;63.44
42621;BME280;28252;53.336;-6.298;2022-08-19T01:01:18;100567.84;;;23.80;63.31
42621;BME280;28252;53.336;-6.298;2022-08-19T01:01:49;100569.09;;;23.77;63.33
42621;BME280;28252;53.336;-6.298;2022-08-19T01:02:20;100567.19;;;23.78;63.37
42621;BME280;28252;53.336;-6.298;2022-08-19T01:02:51;100559.03;;;23.78;63.43
42621;BME280;28252;53.336;-6.298;2022-08-19T01:03:22;100569.91;;;23.78;63.24
42621;BME280;28252;53.336;-6.298;2022-08-19T01:03:53;100571.63;;;23.79;63.40
42621;BME280;28252;53.336;-6.298;2022-08-19T01:04:24;100567.00;;;23.79;63.32
42621;BME280;28252;53.336;-6.298;2022-08-19T01:04:55;100561.75;;;23.78;63.14
42621;BME280;28252;53.336;-6.298;2022-08-19T01:05:27;100568.22;;;23.77;63.08
42621;BME280;28252;53.336;-6.298;2022-08-19T01:05:59;100568.22;;;23.77;63.28
42621;BME280;28252;53.336;-6.298;2022-08-19T01:06:30;100562.78;;;23.77;63.51
42621;BME280;28252;53.336;-6.298;2022-08-19T01:07:03;100571.81;;;23.77;63.02
42621;BME280;28252;53.336;-6.298;2022-08-19T01:07:34;100569.09;;;23.77;63.27
42621;BME280;28252;53.336;-6.298;2022-08-19T01:08:06;100563.66;;;23.77;63.33
42621;BME280;28252;53.336;-6.298;2022-08-19T01:08:37;100560.94;;;23.77;63.10
42621;BME280;28252;53.336;-6.298;2022-08-19T01:09:08;100562.78;;;23.77;63.15
42621;BME280;28252;53.336;-6.298;2022-08-19T01:09:39;100567.19;;;23.78;63.36
42621;BME280;28252;53.336;-6.298;2022-08-19T01:10:11;100572.81;;;23.76;63.20
42621;BME280;28252;53.336;-6.298;2022-08-19T01:10:45;100568.22;;;23.77;63.17
42621;BME280;28252;53.336;-6.298;2022-08-19T01:11:17;100564.47;;;23.78;63.14
42621;BME280;28252;53.336;-6.298;2022-08-19T01:11:48;100566.38;;;23.77;63.26
42621;BME280;28252;53.336;-6.298;2022-08-19T01:12:19;100568.22;;;23.77;63.25
42621;BME280;28252;53.336;-6.298;2022-08-19T01:12:52;100574.53;;;23.77;63.11
42621;BME280;28252;53.336;-6.298;2022-08-19T01:13:23;100569.09;;;23.77;63.33
42621;BME280;28252;53.336;-6.298;2022-08-19T01:13:55;100575.34;;;23.78;63.51
42621;BME280;28252;53.336;-6.298;2022-08-19T01:14:26;100566.38;;;23.77;63.04
42621;BME280;28252;53.336;-6.298;2022-08-19T01:14:57;100569.09;;;23.77;63.02
42621;BME280;28252;53.336;-6.298;2022-08-19T01:15:31;100566.16;;;23.79;63.12
42621;BME280;28252;53.336;-6.298;2022-08-19T01:16:05;100565.31;;;23.78;63.12
42621;BME280;28252;53.336;-6.298;2022-08-19T01:16:36;100562.78;;;23.77;63.26
42621;BME280;28252;53.336;-6.298;2022-08-19T01:17:09;100562.78;;;23.77;63.50
42621;BME280;28252;53.336;-6.298;2022-08-19T01:17:41;100566.16;;;23.79;63.30
42621;BME280;28252;53.336;-6.298;2022-08-19T01:18:13;100561.75;;;23.78;63.26
42621;BME280;28252;53.336;-6.298;2022-08-19T01:18:44;100564.47;;;23.78;63.38
42621;BME280;28252;53.336;-6.298;2022-08-19T01:19:18;100558.00;;;23.79;63.44
42621;BME280;28252;53.336;-6.298;2022-08-19T01:19:53;100564.47;;;23.78;63.34
42621;BME280;28252;53.336;-6.298;2022-08-19T01:20:24;100559.03;;;23.78;63.47
42621;BME280;28252;53.336;-6.298;2022-08-19T01:20:56;100566.16;;;23.79;63.45
42621;BME280;28252;53.336;-6.298;2022-08-19T01:21:37;100561.75;;;23.78;63.33
42621;BME280;28252;53.336;-6.298;2022-08-19T01:22:53;100560.72;;;23.79;63.36
42621;BME280;28252;53.336;-6.298;2022-08-19T01:23:25;100564.47;;;23.78;63.41
42621;BME280;28252;53.336;-6.298;2022-08-19T01:24:12;100561.75;;;23.78;63.30
42621;BME280;28252;53.336;-6.298;2022-08-19T01:24:43;100563.44;;;23.79;63.35
42621;BME280;28252;53.336;-6.298;2022-08-19T01:25:15;100565.31;;;23.78;63.49
42621;BME280;28252;53.336;-6.298;2022-08-19T01:25:48;100559.88;;;23.78;63.54
42621;BME280;28252;53.336;-6.298;2022-08-19T01:26:22;100560.72;;;23.79;63.50
42621;BME280;28252;53.336;-6.298;2022-08-19T01:26:53;100566.16;;;23.79;63.50
42621;BME280;28252;53.336;-6.298;2022-08-19T01:27:24;100565.31;;;23.78;63.63
42621;BME280;28252;53.336;-6.298;2022-08-19T01:27:54;100559.03;;;23.78;63.37
42621;BME280;28252;53.336;-6.298;2022-08-19T01:28:26;100565.31;;;23.78;63.26
42621;BME280;28252;53.336;-6.298;2022-08-19T01:28:58;100554.44;;;23.78;63.51
42621;BME280;28252;53.336;-6.298;2022-08-19T01:29:29;100564.47;;;23.78;63.46
42621;BME280;28252;53.336;-6.298;2022-08-19T01:30:00;100560.72;;;23.79;63.48
42621;BME280;28252;53.336;-6.298;2022-08-19T01:30:32;100560.72;;;23.79;63.19
42621;BME280;28252;53.336;-6.298;2022-08-19T01:31:04;100555.28;;;23.79;63.37
42621;BME280;28252;53.336;-6.298;2022-08-19T01:31:34;100562.59;;;23.78;63.25
42621;BME280;28252;53.336;-6.298;2022-08-19T01:32:06;100564.47;;;23.78;63.62
42621;BME280;28252;53.336;-6.298;2022-08-19T01:32:37;100558.22;;;23.77;63.18
42621;BME280;28252;53.336;-6.298;2022-08-19T01:33:08;100567.19;;;23.78;63.60
42621;BME280;28252;53.336;-6.298;2022-08-19T01:33:39;100560.06;;;23.77;63.43
42621;BME280;28252;53.336;-6.298;2022-08-19T01:34:10;100558.22;;;23.77;63.30
42621;BME280;28252;53.336;-6.298;2022-08-19T01:34:41;100557.34;;;23.77;63.37
42621;BME280;28252;53.336;-6.298;2022-08-19T01:35:12;100559.03;;;23.78;63.38
42621;BME280;28252;53.336;-6.298;2022-08-19T01:35:43;100561.75;;;23.78;63.00
42621;BME280;28252;53.336;-6.298;2022-08-19T01:36:16;100553.59;;;23.78;63.50
42621;BME280;28252;53.336;-6.298;2022-08-19T01:36:52;100552.78;;;23.77;63.44
42621;BME280;28252;53.336;-6.298;2022-08-19T01:37:23;100555.50;;;23.77;63.23
42621;BME280;28252;53.336;-6.298;2022-08-19T01:38:01;100558.22;;;23.77;63.42
42621;BME280;28252;53.336;-6.298;2022-08-19T01:38:34;100552.78;;;23.77;63.52
42621;BME280;28252;53.336;-6.298;2022-08-19T01:39:07;100550.88;;;23.78;63.44
42621;BME280;28252;53.336;-6.298;2022-08-19T01:39:39;100559.03;;;23.78;63.45
42621;BME280;28252;53.336;-6.298;2022-08-19T01:40:10;100554.44;;;23.78;63.16
42621;BME280;28252;53.336;-6.298;2022-08-19T01:40:41;100550.25;;;23.76;63.45
42621;BME280;28252;53.336;-6.298;2022-08-19T01:41:12;100551.91;;;23.77;63.15
42621;BME280;28252;53.336;-6.298;2022-08-19T01:41:43;100550.88;;;23.78;63.43
42621;BME280;28252;53.336;-6.298;2022-08-19T01:42:14;100552.78;;;23.77;63.03
42621;BME280;28252;53.336;-6.298;2022-08-19T01:42:46;100562.78;;;23.77;63.43
42621;BME280;28252;53.336;-6.298;2022-08-19T01:43:18;100560.06;;;23.77;63.39
42621;BME280;28252;53.336;-6.298;2022-08-19T01:43:50;100556.31;;;23.78;63.38
42621;BME280;28252;53.336;-6.298;2022-08-19T01:44:21;100550.25;;;23.76;63.32
42621;BME280;28252;53.336;-6.298;2022-08-19T01:44:54;100555.28;;;23.79;63.09
42621;BME280;28252;53.336;-6.298;2022-08-19T01:45:26;100555.50;;;23.77;63.12
42621;BME280;28252;53.336;-6.298;2022-08-19T01:45:58;100552.78;;;23.77;63.10
42621;BME280;28252;53.336;-6.298;2022-08-19T01:46:29;100553.59;;;23.78;63.13
42621;BME280;28252;53.336;-6.298;2022-08-19T01:47:00;100543.75;;;23.77;63.46
42621;BME280;28252;53.336;-6.298;2022-08-19T01:47:31;100551.06;;;23.76;63.40
42621;BME280;28252;53.336;-6.298;2022-08-19T01:48:03;100552.97;;;23.76;63.20
42621;BME280;28252;53.336;-6.298;2022-08-19T01:48:35;100549.41;;;23.75;63.37
42621;BME280;28252;53.336;-6.298;2022-08-19T01:49:07;100555.69;;;23.76;63.27
42621;BME280;28252;53.336;-6.298;2022-08-19T01:49:38;100558.41;;;23.76;63.11
42621;BME280;28252;53.336;-6.298;2022-08-19T01:50:10;100567.38;;;23.76;63.02
42621;BME280;28252;53.336;-6.298;2022-08-19T01:50:41;100561.13;;;23.76;63.27
42621;BME280;28252;53.336;-6.298;2022-08-19T01:51:12;100560.06;;;23.77;63.07
42621;BME280;28252;53.336;-6.298;2022-08-19T01:51:43;100561.94;;;23.76;63.15
42621;BME280;28252;53.336;-6.298;2022-08-19T01:52:14;100560.06;;;23.77;63.27
42621;BME280;28252;53.336;-6.298;2022-08-19T01:52:45;100561.13;;;23.76;63.06
42621;BME280;28252;53.336;-6.298;2022-08-19T01:53:16;100559.44;;;23.75;63.30
42621;BME280;28252;53.336;-6.298;2022-08-19T01:53:48;100565.72;;;23.75;63.12
42621;BME280;28252;53.336;-6.298;2022-08-19T01:54:19;100559.44;;;23.75;63.02
42621;BME280;28252;53.336;-6.298;2022-08-19T01:54:51;100565.72;;;23.75;63.09
42621;BME280;28252;53.336;-6.298;2022-08-19T01:55:22;100564.88;;;23.75;63.26
42621;BME280;28252;53.336;-6.298;2022-08-19T01:55:54;100558.59;;;23.74;63.09
42621;BME280;28252;53.336;-6.298;2022-08-19T01:56:25;100569.28;;;23.76;62.83
42621;BME280;28252;53.336;-6.298;2022-08-19T01:57:03;100564.88;;;23.75;63.15
42621;BME280;28252;53.336;-6.298;2022-08-19T01:57:35;100564.88;;;23.75;63.07
42621;BME280;28252;53.336;-6.298;2022-08-19T01:58:07;100569.28;;;23.76;62.91
42621;BME280;28252;53.336;-6.298;2022-08-19T01:58:41;100572.00;;;23.76;63.15
42621;BME280;28252;53.336;-6.298;2022-08-19T01:59:17;100564.88;;;23.75;63.00
42621;BME280;28252;53.336;-6.298;2022-08-19T01:59:49;100559.44;;;23.75;63.07
42621;BME280;28252;53.336;-6.298;2022-08-19T02:00:22;100561.13;;;23.76;63.16
42621;BME280;28252;53.336;-6.298;2022-08-19T02:00:53;100572.00;;;23.76;63.03
42621;BME280;28252;53.336;-6.298;2022-08-19T02:01:24;100567.59;;;23.75;62.79
42621;BME280;28252;53.336;-6.298;2022-08-19T02:01:55;100564.88;;;23.75;62.92
42621;BME280;28252;53.336;-6.298;2022-08-19T02:02:26;100569.47;;;23.74;62.87
42621;BME280;28252;53.336;-6.298;2022-08-19T02:02:57;100565.91;;;23.74;63.16
42621;BME280;28252;53.336;-6.298;2022-08-19T02:03:28;100574.91;;;23.74;63.17
42621;BME280;28252;53.336;-6.298;2022-08-19T02:03:59;100562.16;;;23.75;62.84
42621;BME280;28252;53.336;-6.298;2022-08-19T02:04:31;100570.31;;;23.75;63.10
42621;BME280;28252;53.336;-6.298;2022-08-19T02:05:02;100574.09;;;23.74;63.00
42621;BME280;28252;53.336;-6.298;2022-08-19T02:05:33;100572.19;;;23.74;62.81
42621;BME280;28252;53.336;-6.298;2022-08-19T02:06:04;100574.09;;;23.74;63.09
42621;BME280;28252;53.336;-6.298;2022-08-19T02:06:35;100568.63;;;23.74;63.08
42621;BME280;28252;53.336;-6.298;2022-08-19T02:07:07;100564.88;;;23.75;63.00
42621;BME280;28252;53.336;-6.298;2022-08-19T02:07:39;100563.19;;;23.74;62.92
42621;BME280;28252;53.336;-6.298;2022-08-19T02:08:10;100569.47;;;23.74;62.91
42621;BME280;28252;53.336;-6.298;2022-08-19T02:08:41;100568.63;;;23.74;63.09
42621;BME280;28252;53.336;-6.298;2022-08-19T02:09:12;100570.31;;;23.75;62.80
42621;BME280;28252;53.336;-6.298;2022-08-19T02:09:43;100573.22;;;23.73;62.81
42621;BME280;28252;53.336;-6.298;2022-08-19T02:10:17;100570.31;;;23.75;62.83
42621;BME280;28252;53.336;-6.298;2022-08-19T02:10:48;100565.91;;;23.74;63.06
42621;BME280;28252;53.336;-6.298;2022-08-19T02:11:21;100565.91;;;23.74;62.98
42621;BME280;28252;53.336;-6.298;2022-08-19T02:11:52;100568.63;;;23.74;62.91
42621;BME280;28252;53.336;-6.298;2022-08-19T02:12:24;100571.38;;;23.74;62.97
42621;BME280;28252;53.336;-6.298;2022-08-19T02:12:54;100569.47;;;23.74;62.84
42621;BME280;28252;53.336;-6.298;2022-08-19T02:13:26;100561.50;;;23.73;63.04
42621;BME280;28252;53.336;-6.298;2022-08-19T02:13:57;100565.91;;;23.74;63.04
42621;BME280;28252;53.336;-6.298;2022-08-19T02:14:28;100563.19;;;23.74;62.96
42621;BME280;28252;53.336;-6.298;2022-08-19T02:14:59;100569.66;;;23.73;62.91
42621;BME280;28252;53.336;-6.298;2022-08-19T02:15:32;100572.38;;;23.73;62.69
42621;BME280;28252;53.336;-6.298;2022-08-19T02:16:03;100567.78;;;23.73;62.86
42621;BME280;28252;53.336;-6.298;2022-08-19T02:16:34;100563.41;;;23.72;62.94
42621;BME280;28252;53.336;-6.298;2022-08-19T02:17:06;100566.94;;;23.73;62.69
42621;BME280;28252;53.336;-6.298;2022-08-19T02:17:37;100566.94;;;23.73;62.68
42621;BME280;28252;53.336;-6.298;2022-08-19T02:18:08;100566.94;;;23.73;62.67
42621;BME280;28252;53.336;-6.298;2022-08-19T02:18:39;100568.84;;;23.72;62.69
42621;BME280;28252;53.336;-6.298;2022-08-19T02:19:10;100572.38;;;23.73;62.84
42621;BME280;28252;53.336;-6.298;2022-08-19T02:19:41;100565.25;;;23.72;62.55
42621;BME280;28252;53.336;-6.298;2022-08-19T02:20:12;100564.41;;;23.71;62.73
42621;BME280;28252;53.336;-6.298;2022-08-19T02:20:43;100572.38;;;23.73;62.91
42621;BME280;28252;53.336;-6.298;2022-08-19T02:21:15;100566.94;;;23.73;62.62
42621;BME280;28252;53.336;-6.298;2022-08-19T02:21:46;100566.94;;;23.73;62.86
42621;BME280;28252;53.336;-6.298;2022-08-19T02:22:17;100566.94;;;23.73;62.75
42621;BME280;28252;53.336;-6.298;2022-08-19T02:22:48;100572.38;;;23.73;62.69
42621;BME280;28252;53.336;-6.298;2022-08-19T02:23:18;100569.66;;;23.73;62.82
42621;BME280;28252;53.336;-6.298;2022-08-19T02:23:50;100574.28;;;23.72;62.69
42621;BME280;28252;53.336;-6.298;2022-08-19T02:24:21;100576.81;;;23.74;62.67
42621;BME280;28252;53.336;-6.298;2022-08-19T02:24:52;100570.69;;;23.72;62.80
42621;BME280;28252;53.336;-6.298;2022-08-19T02:25:23;100570.69;;;23.72;62.68
42621;BME280;28252;53.336;-6.298;2022-08-19T02:25:54;100575.31;;;23.71;62.48
42621;BME280;28252;53.336;-6.298;2022-08-19T02:26:25;100576.13;;;23.72;62.84
42621;BME280;28252;53.336;-6.298;2022-08-19T02:26:59;100567.13;;;23.71;62.67
42621;BME280;28252;53.336;-6.298;2022-08-19T02:27:30;100577.81;;;23.73;62.84
42621;BME280;28252;53.336;-6.298;2022-08-19T02:28:01;100569.88;;;23.71;62.83
42621;BME280;28252;53.336;-6.298;2022-08-19T02:28:33;100564.41;;;23.71;62.60
42621;BME280;28252;53.336;-6.298;2022-08-19T02:29:04;100569.88;;;23.71;62.80
42621;BME280;28252;53.336;-6.298;2022-08-19T02:29:35;100570.69;;;23.72;62.51
42621;BME280;28252;53.336;-6.298;2022-08-19T02:30:06;100567.97;;;23.72;62.77
42621;BME280;28252;53.336;-6.298;2022-08-19T02:30:38;100569.03;;;23.71;62.55
42621;BME280;28252;53.336;-6.298;2022-08-19T02:31:11;100574.47;;;23.71;62.78
42621;BME280;28252;53.336;-6.298;2022-08-19T02:31:43;100575.31;;;23.71;62.78
42621;BME280;28252;53.336;-6.298;2022-08-19T02:32:14;100569.03;;;23.71;62.72
42621;BME280;28252;53.336;-6.298;2022-08-19T02:32:45;100569.03;;;23.71;62.54
42621;BME280;28252;53.336;-6.298;2022-08-19T02:33:16;100574.47;;;23.71;62.78
42621;BME280;28252;53.336;-6.298;2022-08-19T02:33:46;100569.03;;;23.71;62.65
42621;BME280;28252;53.336;-6.298;2022-08-19T02:34:18;100565.47;;;23.70;62.79
42621;BME280;28252;53.336;-6.298;2022-08-19T02:34:48;100564.41;;;23.71;62.48
42621;BME280;28252;53.336;-6.298;2022-08-19T02:35:20;100573.63;;;23.70;62.61
42621;BME280;28252;53.336;-6.298;2022-08-19T02:35:51;100569.03;;;23.71;62.84
42621;BME280;28252;53.336;-6.298;2022-08-19T02:36:23;100576.13;;;23.72;62.47
42621;BME280;28252;53.336;-6.298;2022-08-19T02:36:54;100560.88;;;23.71;62.67
42621;BME280;28252;53.336;-6.298;2022-08-19T02:37:25;100568.19;;;23.70;62.75
42621;BME280;28252;53.336;-6.298;2022-08-19T02:38:14;100567.34;;;23.69;62.60
42621;BME280;28252;53.336;-6.298;2022-08-19T02:38:57;100565.47;;;23.70;62.73
42621;BME280;28252;53.336;-6.298;2022-08-19T02:39:28;100559.19;;;23.69;62.64
42621;BME280;28252;53.336;-6.298;2022-08-19T02:39:59;100564.63;;;23.69;62.52
42621;BME280;28252;53.336;-6.298;2022-08-19T02:40:30;100573.63;;;23.70;62.46
42621;BME280;28252;53.336;-6.298;2022-08-19T02:41:11;100576.56;;;23.68;62.64
42621;BME280;28252;53.336;-6.298;2022-08-19T02:41:42;100571.13;;;23.68;62.69
42621;BME280;28252;53.336;-6.298;2022-08-19T02:42:13;100561.06;;;23.69;62.78
42621;BME280;28252;53.336;-6.298;2022-08-19T02:42:44;100567.34;;;23.69;62.63
42621;BME280;28252;53.336;-6.298;2022-08-19T02:43:16;100571.13;;;23.68;62.57
42621;BME280;28252;53.336;-6.298;2022-08-19T02:43:47;100564.63;;;23.69;62.62
42621;BME280;28252;53.336;-6.298;2022-08-19T02:44:18;100573.63;;;23.70;62.67
42621;BME280;28252;53.336;-6.298;2022-08-19T02:44:49;100572.97;;;23.68;62.31
42621;BME280;28252;53.336;-6.298;2022-08-19T02:45:20;100571.94;;;23.69;62.75
42621;BME280;28252;53.336;-6.298;2022-08-19T02:45:51;100572.78;;;23.69;62.60